createdAt,value
2023-03-29T00:00:36.433Z,-4.06
2023-03-29T00:03:16.822Z,-4.08
2023-03-29T00:05:45.417Z,-4.08
2023-03-29T00:08:14.961Z,-4.08
2023-03-29T00:10:43.187Z,-4.08
2023-03-29T00:13:11.359Z,-4.07
2023-03-29T00:15:41.279Z,-4.08
2023-03-29T00:18:09.672Z,-4.08
2023-03-29T00:20:37.882Z,-4.06
2023-03-29T00:23:07.129Z,-4.06
2023-03-29T00:25:35.357Z,-4.07
2023-03-29T00:28:03.627Z,-4.08
2023-03-29T00:30:31.933Z,-4.06
2023-03-29T00:33:00.241Z,-4.08
2023-03-29T00:35:28.408Z,-4.08
2023-03-29T00:37:57.926Z,-4.11
2023-03-29T00:40:26.553Z,-4.13
2023-03-29T00:42:57.228Z,-4.15
2023-03-29T00:45:30.505Z,-4.18
2023-03-29T00:48:03.017Z,-4.20
2023-03-29T00:50:36.488Z,-4.21
2023-03-29T00:53:12.613Z,-4.24
2023-03-29T00:55:49.862Z,-4.26
2023-03-29T00:58:24.777Z,-4.26
2023-03-29T01:01:02.474Z,-4.26
2023-03-29T01:03:38.080Z,-4.28
2023-03-29T01:06:08.763Z,-4.31
2023-03-29T01:08:43.395Z,-4.32
2023-03-29T01:11:24.868Z,-4.33
2023-03-29T01:14:02.733Z,-4.35
2023-03-29T01:16:33.260Z,-4.36
2023-03-29T01:19:02.390Z,-4.40
2023-03-29T01:21:44.241Z,-4.41
2023-03-29T01:24:47.197Z,-4.39
2023-03-29T01:27:44.663Z,-4.39
2023-03-29T01:30:31.997Z,-4.38
2023-03-29T01:36:16.593Z,-4.39
2023-03-29T01:38:50.853Z,-4.39
2023-03-29T01:41:18.989Z,-4.37
2023-03-29T01:44:02.631Z,-4.36
2023-03-29T01:46:45.760Z,-4.33
2023-03-29T01:49:29.582Z,-4.34
2023-03-29T01:52:15.117Z,-4.36
2023-03-29T01:54:58.379Z,-4.36
2023-03-29T01:57:27.319Z,-4.35
2023-03-29T01:59:57.874Z,-4.35
2023-03-29T02:02:28.800Z,-4.37
2023-03-29T02:04:59.552Z,-4.36
2023-03-29T02:07:32.467Z,-4.37
2023-03-29T02:10:02.163Z,-4.37
2023-03-29T02:12:31.166Z,-4.38
2023-03-29T02:15:00.863Z,-4.40
2023-03-29T02:17:31.440Z,-4.39
2023-03-29T02:20:02.272Z,-4.41
2023-03-29T02:22:39.321Z,-4.44
2023-03-29T02:25:09.525Z,-4.49
2023-03-29T02:27:39.383Z,-4.51
2023-03-29T02:30:10.830Z,-4.54
2023-03-29T02:33:08.421Z,-4.58
2023-03-29T02:35:46.456Z,-4.65
2023-03-29T02:38:15.458Z,-4.69
2023-03-29T02:40:44.180Z,-4.73
2023-03-29T02:43:14.572Z,-4.76
2023-03-29T02:45:44.343Z,-4.79
2023-03-29T02:48:18.129Z,-4.82
2023-03-29T02:50:51.260Z,-4.84
2023-03-29T02:53:24.615Z,-4.87
2023-03-29T02:55:55.060Z,-4.90
2023-03-29T02:58:26.696Z,-4.93
2023-03-29T03:00:58.684Z,-4.93
2023-03-29T03:03:27.700Z,-4.92
2023-03-29T03:05:56.643Z,-4.90
2023-03-29T03:08:24.831Z,-4.90
2023-03-29T03:10:54.206Z,-4.91
2023-03-29T03:13:22.276Z,-4.92
2023-03-29T03:15:50.735Z,-4.94
2023-03-29T03:18:18.895Z,-4.95
2023-03-29T03:20:59.408Z,-4.96
2023-03-29T03:23:29.098Z,-4.97
2023-03-29T03:25:57.572Z,-5.01
2023-03-29T03:28:27.457Z,-5.03
2023-03-29T03:30:56.096Z,-5.03
2023-03-29T03:33:25.041Z,-5.05
2023-03-29T03:36:26.433Z,-5.06
2023-03-29T03:38:55.174Z,-5.07
2023-03-29T03:41:23.369Z,-5.09
2023-03-29T03:43:51.433Z,-5.11
2023-03-29T03:46:19.764Z,-5.11
2023-03-29T03:48:48.207Z,-5.13
2023-03-29T03:51:36.941Z,-5.16
2023-03-29T03:54:05.671Z,-5.18
2023-03-29T03:56:36.361Z,-5.21
2023-03-29T03:59:18.157Z,-5.23
2023-03-29T04:05:48.851Z,-5.26
2023-03-29T04:08:18.160Z,-5.26
2023-03-29T04:11:07.757Z,-5.28
2023-03-29T04:13:38.470Z,-5.28
2023-03-29T04:16:25.431Z,-5.27
2023-03-29T04:18:53.883Z,-5.27
2023-03-29T04:21:23.229Z,-5.28
2023-03-29T04:23:51.451Z,-5.26
2023-03-29T04:26:19.695Z,-5.24
2023-03-29T04:28:56.582Z,-5.19
2023-03-29T04:34:37.207Z,-4.58
2023-03-29T04:37:10.593Z,-3.86
2023-03-29T04:39:39.627Z,-3.11
2023-03-29T04:42:09.559Z,-2.37
2023-03-29T04:44:37.824Z,-1.58
2023-03-29T04:47:07.314Z,-0.78
2023-03-29T04:49:44.511Z,0.03
2023-03-29T04:52:18.586Z,0.59
2023-03-29T04:54:46.740Z,0.40
2023-03-29T04:57:26.184Z,0.05
2023-03-29T05:00:08.461Z,-0.27
2023-03-29T05:02:59.706Z,-0.50
2023-03-29T05:05:28.496Z,-0.55
2023-03-29T05:07:57.578Z,-0.59
2023-03-29T05:10:30.132Z,-0.55
2023-03-29T05:12:58.387Z,-0.51
2023-03-29T05:15:27.406Z,-0.52
2023-03-29T05:17:56.246Z,-0.59
2023-03-29T05:20:25.278Z,-0.53
2023-03-29T05:22:53.848Z,-0.46
2023-03-29T05:25:43.967Z,-0.43
2023-03-29T05:28:12.098Z,-0.36
2023-03-29T05:30:40.898Z,-0.27
2023-03-29T05:33:21.152Z,-0.19
2023-03-29T05:35:49.205Z,-0.07
2023-03-29T05:38:18.066Z,-0.07
2023-03-29T05:40:46.103Z,0.04
2023-03-29T05:43:33.756Z,0.22
2023-03-29T05:46:03.074Z,0.34
2023-03-29T05:48:31.659Z,0.44
2023-03-29T05:50:59.884Z,0.58
2023-03-29T05:53:28.459Z,0.71
2023-03-29T05:55:57.311Z,0.76
2023-03-29T05:58:28.545Z,0.84
2023-03-29T06:00:57.570Z,0.89
2023-03-29T06:03:36.671Z,0.98
2023-03-29T06:06:05.512Z,1.15
2023-03-29T06:08:35.313Z,1.25
2023-03-29T06:11:26.515Z,1.42
2023-03-29T06:14:13.955Z,1.63
2023-03-29T06:16:50.965Z,1.77
2023-03-29T06:19:19.793Z,1.96
2023-03-29T06:21:48.024Z,2.22
2023-03-29T06:24:20.745Z,2.46
2023-03-29T06:26:57.141Z,2.70
2023-03-29T06:29:25.749Z,2.91
2023-03-29T06:31:55.044Z,3.19
2023-03-29T06:34:49.615Z,3.37
2023-03-29T06:37:30.188Z,3.58
2023-03-29T06:40:07.032Z,3.57
2023-03-29T06:42:48.304Z,3.76
2023-03-29T06:45:37.841Z,4.03
2023-03-29T06:48:09.822Z,4.17
2023-03-29T06:50:38.226Z,4.40
2023-03-29T06:53:11.616Z,4.57
2023-03-29T06:55:41.383Z,4.85
2023-03-29T06:58:32.864Z,5.17
2023-03-29T07:01:05.538Z,5.31
2023-03-29T07:03:51.447Z,5.39
2023-03-29T07:06:24.084Z,5.42
2023-03-29T07:08:52.765Z,5.36
2023-03-29T07:11:41.712Z,5.42
2023-03-29T07:14:20.638Z,5.54
2023-03-29T07:16:49.676Z,5.67
2023-03-29T07:19:22.823Z,5.90
2023-03-29T07:21:57.275Z,5.88
2023-03-29T07:24:35.013Z,5.85
2023-03-29T07:27:04.547Z,5.92
2023-03-29T07:29:33.713Z,5.96
2023-03-29T07:32:01.820Z,6.13
2023-03-29T07:34:50.049Z,6.48
2023-03-29T07:37:25.465Z,6.79
2023-03-29T07:39:54.001Z,6.86
2023-03-29T07:42:40.394Z,6.49
2023-03-29T07:45:11.401Z,6.66
2023-03-29T07:47:49.417Z,6.82
2023-03-29T07:50:18.125Z,6.91
2023-03-29T07:52:46.297Z,7.04
2023-03-29T07:55:16.534Z,7.27
2023-03-29T07:57:55.664Z,7.33
2023-03-29T08:00:24.984Z,7.26
2023-03-29T08:03:13.275Z,7.38
2023-03-29T08:05:42.588Z,7.37
2023-03-29T08:08:14.310Z,7.32
2023-03-29T08:11:02.266Z,7.28
2023-03-29T08:13:43.472Z,7.54
2023-03-29T08:16:37.336Z,7.55
2023-03-29T08:19:10.123Z,7.62
2023-03-29T08:22:01.182Z,7.58
2023-03-29T08:24:33.112Z,7.30
2023-03-29T08:27:05.491Z,7.39
2023-03-29T08:29:33.717Z,7.52
2023-03-29T08:32:01.799Z,7.52
2023-03-29T08:34:31.914Z,7.45
2023-03-29T08:37:38.431Z,7.47
2023-03-29T08:40:07.418Z,7.52
2023-03-29T08:43:13.847Z,7.58
2023-03-29T08:46:00.836Z,7.60
2023-03-29T08:48:36.423Z,7.61
2023-03-29T08:51:17.357Z,7.58
2023-03-29T08:53:57.291Z,7.37
2023-03-29T08:56:34.149Z,7.11
2023-03-29T08:59:03.554Z,7.05
2023-03-29T09:01:36.334Z,6.90
2023-03-29T09:04:18.863Z,6.93
2023-03-29T09:06:57.904Z,7.15
2023-03-29T09:09:34.010Z,7.04
2023-03-29T09:12:22.802Z,7.12
2023-03-29T09:15:09.634Z,7.13
2023-03-29T09:17:42.043Z,7.00
2023-03-29T09:20:23.585Z,6.85
2023-03-29T09:23:03.260Z,6.78
2023-03-29T09:25:50.796Z,6.74
2023-03-29T09:28:22.766Z,6.98
2023-03-29T09:31:28.895Z,7.04
2023-03-29T09:34:03.863Z,6.91
2023-03-29T09:37:02.764Z,6.69
2023-03-29T09:39:31.935Z,6.61
2023-03-29T09:42:09.523Z,6.75
2023-03-29T09:44:43.988Z,6.77
2023-03-29T09:47:25.030Z,6.81
2023-03-29T09:49:59.386Z,6.84
2023-03-29T09:52:27.724Z,6.92
2023-03-29T09:55:05.474Z,6.83
2023-03-29T09:57:54.217Z,6.84
2023-03-29T10:00:22.501Z,6.94
2023-03-29T10:02:57.274Z,7.13
2023-03-29T10:05:37.039Z,7.13
2023-03-29T10:08:38.748Z,7.10
2023-03-29T10:11:13.002Z,7.08
2023-03-29T10:13:47.816Z,6.98
2023-03-29T10:16:22.333Z,6.88
2023-03-29T10:18:51.289Z,6.87
2023-03-29T10:21:34.397Z,6.87
2023-03-29T10:24:02.562Z,6.95
2023-03-29T10:26:34.501Z,7.04
2023-03-29T10:29:08.378Z,7.02
2023-03-29T10:31:41.697Z,7.11
2023-03-29T10:34:13.861Z,7.11
2023-03-29T10:36:44.242Z,7.02
2023-03-29T10:39:31.516Z,6.89
2023-03-29T10:42:04.373Z,7.05
2023-03-29T10:44:36.219Z,7.14
2023-03-29T10:47:13.010Z,7.20
2023-03-29T10:49:44.388Z,7.31
2023-03-29T10:52:17.415Z,7.49
2023-03-29T10:54:46.649Z,7.48
2023-03-29T10:57:39.615Z,7.54
2023-03-29T11:05:03.841Z,7.77
2023-03-29T11:08:05.653Z,7.61
2023-03-29T11:10:43.356Z,7.60
2023-03-29T11:13:39.656Z,7.63
2023-03-29T11:16:31.131Z,7.58
2023-03-29T11:19:02.201Z,7.70
2023-03-29T11:21:48.821Z,7.82
2023-03-29T11:24:53.769Z,7.73
2023-03-29T11:27:56.351Z,7.65
2023-03-29T11:30:45.023Z,7.82
2023-03-29T11:33:46.781Z,7.91
2023-03-29T11:36:22.780Z,7.85
2023-03-29T11:38:53.873Z,7.91
2023-03-29T11:41:27.559Z,7.93
2023-03-29T11:44:13.937Z,7.91
2023-03-29T11:46:51.272Z,7.98
2023-03-29T11:49:25.520Z,8.06
2023-03-29T11:52:01.273Z,8.07
2023-03-29T11:54:39.597Z,8.14
2023-03-29T11:57:20.662Z,8.31
2023-03-29T12:00:01.164Z,8.24
2023-03-29T12:02:40.475Z,8.20
2023-03-29T12:05:19.120Z,8.19
2023-03-29T12:08:09.250Z,8.31
2023-03-29T12:10:42.867Z,8.43
2023-03-29T12:13:24.727Z,8.44
2023-03-29T12:16:05.139Z,8.35
2023-03-29T12:18:46.570Z,8.25
2023-03-29T12:21:19.880Z,8.21
2023-03-29T12:23:49.013Z,8.28
2023-03-29T12:26:54.698Z,8.29
2023-03-29T12:29:58.145Z,8.38
2023-03-29T12:32:44.718Z,8.49
2023-03-29T12:36:17.357Z,8.48
2023-03-29T12:39:24.771Z,8.34
2023-03-29T12:42:23.235Z,8.45
2023-03-29T12:45:31.975Z,8.45
2023-03-29T12:48:00.775Z,8.49
2023-03-29T12:50:35.123Z,8.43
2023-03-29T12:53:07.534Z,8.45
2023-03-29T12:56:08.768Z,8.41
2023-03-29T12:58:39.735Z,8.36
2023-03-29T13:01:23.442Z,8.29
2023-03-29T13:03:57.847Z,8.21
2023-03-29T13:06:30.978Z,8.14
2023-03-29T13:09:00.712Z,8.20
2023-03-29T13:11:45.660Z,8.10
2023-03-29T13:14:19.010Z,8.17
2023-03-29T13:16:48.097Z,8.13
2023-03-29T13:19:24.087Z,8.15
2023-03-29T13:22:10.863Z,8.11
2023-03-29T13:24:41.617Z,8.06
2023-03-29T13:27:15.861Z,8.08
2023-03-29T13:29:50.083Z,8.16
2023-03-29T13:32:30.538Z,8.10
2023-03-29T13:35:11.730Z,8.07
2023-03-29T13:37:58.215Z,8.06
2023-03-29T13:40:44.613Z,8.09
2023-03-29T13:43:19.420Z,8.13
2023-03-29T13:45:56.985Z,8.16
2023-03-29T13:48:37.668Z,8.13
2023-03-29T13:51:17.850Z,8.18
2023-03-29T13:53:53.014Z,8.07
2023-03-29T13:56:30.065Z,8.08
2023-03-29T13:59:17.134Z,8.06
2023-03-29T14:01:57.979Z,7.96
2023-03-29T14:04:46.916Z,7.87
2023-03-29T14:07:26.469Z,7.94
2023-03-29T14:09:56.669Z,7.96
2023-03-29T14:12:27.450Z,7.91
2023-03-29T14:15:01.575Z,7.87
2023-03-29T14:17:30.506Z,7.83
2023-03-29T14:20:00.688Z,7.82
2023-03-29T14:22:33.921Z,7.71
2023-03-29T14:25:07.372Z,7.58
2023-03-29T14:27:37.280Z,7.56
2023-03-29T14:30:27.594Z,7.56
2023-03-29T14:32:56.903Z,7.59
2023-03-29T14:35:32.342Z,7.65
2023-03-29T14:38:02.045Z,7.66
2023-03-29T14:40:30.907Z,7.66
2023-03-29T14:43:05.478Z,7.76
2023-03-29T14:45:33.976Z,7.71
2023-03-29T14:48:02.537Z,7.68
2023-03-29T14:50:32.451Z,7.70
2023-03-29T14:53:01.760Z,7.65
2023-03-29T14:55:31.125Z,7.67
2023-03-29T14:58:00.542Z,7.68
2023-03-29T15:00:38.547Z,7.56
2023-03-29T15:03:14.181Z,7.50
2023-03-29T15:05:57.554Z,7.45
2023-03-29T15:08:37.756Z,7.41
2023-03-29T15:11:24.541Z,7.46
2023-03-29T15:14:00.442Z,7.39
2023-03-29T15:16:32.976Z,7.33
2023-03-29T15:19:02.335Z,7.36
2023-03-29T15:21:34.681Z,7.32
2023-03-29T15:24:04.094Z,7.40
2023-03-29T15:26:36.758Z,7.46
2023-03-29T15:29:15.346Z,7.40
2023-03-29T15:31:55.604Z,7.37
2023-03-29T15:34:29.479Z,7.43
2023-03-29T15:36:58.019Z,7.47
2023-03-29T15:39:30.866Z,7.52
2023-03-29T15:41:59.389Z,7.60
2023-03-29T15:44:33.372Z,7.50
2023-03-29T15:47:01.755Z,7.41
2023-03-29T15:49:29.949Z,7.31
2023-03-29T15:51:58.493Z,7.19
2023-03-29T15:54:28.742Z,7.12
2023-03-29T15:57:02.307Z,7.06
2023-03-29T15:59:31.941Z,7.04
2023-03-29T16:02:00.988Z,6.98
2023-03-29T16:04:30.213Z,6.95
2023-03-29T16:06:58.581Z,6.84
2023-03-29T16:09:27.470Z,6.75
2023-03-29T16:11:55.700Z,6.66
2023-03-29T16:14:24.308Z,6.61
2023-03-29T16:16:53.406Z,6.57
2023-03-29T16:19:22.364Z,6.52
2023-03-29T16:21:51.249Z,6.45
2023-03-29T16:24:28.139Z,6.39
2023-03-29T16:26:57.551Z,6.31
2023-03-29T16:29:26.028Z,6.27
2023-03-29T16:31:54.581Z,6.21
2023-03-29T16:34:23.010Z,6.14
2023-03-29T16:36:51.253Z,6.03
2023-03-29T16:39:19.559Z,5.94
2023-03-29T16:41:49.028Z,5.87
2023-03-29T16:44:22.832Z,5.84
2023-03-29T16:46:57.841Z,5.77
2023-03-29T16:49:26.071Z,5.69
2023-03-29T16:51:54.166Z,5.59
2023-03-29T16:54:29.719Z,5.50
2023-03-29T16:56:58.173Z,5.44
2023-03-29T16:59:27.133Z,5.39
2023-03-29T17:01:55.517Z,5.33
2023-03-29T17:04:23.732Z,5.27
2023-03-29T17:06:51.827Z,5.21
2023-03-29T17:09:20.085Z,5.20
2023-03-29T17:11:48.549Z,5.19
2023-03-29T17:14:17.228Z,5.14
2023-03-29T17:16:46.402Z,5.08
2023-03-29T17:19:14.556Z,4.98
2023-03-29T17:21:43.135Z,4.90
2023-03-29T17:24:11.515Z,4.85
2023-03-29T17:26:40.042Z,4.82
2023-03-29T17:29:08.422Z,4.77
2023-03-29T17:31:36.709Z,4.72
2023-03-29T17:34:05.078Z,4.62
2023-03-29T17:36:33.862Z,4.52
2023-03-29T17:39:02.729Z,4.44
2023-03-29T17:41:31.693Z,4.35
2023-03-29T17:43:59.958Z,4.28
2023-03-29T17:46:28.258Z,4.22
2023-03-29T17:48:56.703Z,4.18
2023-03-29T17:51:25.336Z,4.16
2023-03-29T17:53:54.899Z,4.11
2023-03-29T17:56:23.432Z,4.03
2023-03-29T17:58:52.450Z,3.93
2023-03-29T18:01:20.995Z,3.83
2023-03-29T18:03:49.314Z,3.76
2023-03-29T18:06:20.250Z,3.69
2023-03-29T18:08:48.610Z,3.63
2023-03-29T18:11:22.479Z,3.58
2023-03-29T18:13:52.409Z,3.55
2023-03-29T18:16:22.172Z,3.54
2023-03-29T18:18:51.085Z,3.54
2023-03-29T18:21:20.043Z,3.54
2023-03-29T18:23:49.554Z,3.54
2023-03-29T18:26:17.948Z,3.56
2023-03-29T18:28:47.350Z,3.57
2023-03-29T18:31:16.033Z,3.57
2023-03-29T18:33:44.380Z,3.57
2023-03-29T18:36:13.849Z,3.58
2023-03-29T18:38:43.836Z,3.57
2023-03-29T18:41:14.127Z,3.56
2023-03-29T18:43:43.321Z,3.54
2023-03-29T18:46:12.165Z,3.50
2023-03-29T18:48:41.068Z,3.47
2023-03-29T18:51:11.472Z,3.46
2023-03-29T18:53:41.657Z,3.43
2023-03-29T18:56:10.128Z,3.38
2023-03-29T18:58:38.191Z,3.35
2023-03-29T19:04:37.178Z,3.29
2023-03-29T19:07:05.450Z,3.23
2023-03-29T19:09:33.582Z,3.20
2023-03-29T19:12:02.341Z,3.16
2023-03-29T19:14:30.703Z,3.15
2023-03-29T19:16:58.757Z,3.11
2023-03-29T19:19:27.313Z,3.08
2023-03-29T19:21:57.694Z,3.07
2023-03-29T19:24:28.199Z,3.04
2023-03-29T19:26:56.592Z,3.01
2023-03-29T19:29:25.869Z,3.00
2023-03-29T19:31:54.772Z,3.03
2023-03-29T19:34:24.367Z,3.07
2023-03-29T19:37:49.645Z,3.13
2023-03-29T19:40:17.907Z,3.18
2023-03-29T19:42:47.616Z,3.19
2023-03-29T19:45:15.629Z,3.21
2023-03-29T19:47:47.585Z,3.25
2023-03-29T19:50:15.778Z,3.26
2023-03-29T19:52:43.939Z,3.27
2023-03-29T19:55:12.436Z,3.27
2023-03-29T19:57:40.569Z,3.25
2023-03-29T20:00:10.852Z,3.26
2023-03-29T20:02:42.570Z,3.27
2023-03-29T20:05:10.655Z,3.28
2023-03-29T20:07:38.640Z,3.30
2023-03-29T20:10:07.344Z,3.31
2023-03-29T20:12:36.569Z,3.32
2023-03-29T20:15:05.392Z,3.30
2023-03-29T20:17:35.782Z,3.29
2023-03-29T20:20:08.449Z,3.29
2023-03-29T20:22:42.159Z,3.32
2023-03-29T20:25:10.668Z,3.31
2023-03-29T20:27:41.103Z,3.30
2023-03-29T20:30:10.933Z,3.28
2023-03-29T20:32:39.060Z,3.29
2023-03-29T20:35:07.612Z,3.25
2023-03-29T20:37:36.199Z,3.24
2023-03-29T20:40:05.537Z,3.22
2023-03-29T20:42:34.670Z,3.18
2023-03-29T20:45:03.441Z,3.12
2023-03-29T20:47:31.842Z,3.04
2023-03-29T20:50:01.795Z,2.95
2023-03-29T20:52:30.767Z,2.89
2023-03-29T20:54:59.252Z,2.83
2023-03-29T20:57:29.283Z,2.83
2023-03-29T20:59:59.243Z,2.81
2023-03-29T21:02:27.516Z,2.78
2023-03-29T21:05:00.266Z,2.75
2023-03-29T21:07:28.926Z,2.73
2023-03-29T21:09:57.500Z,2.67
2023-03-29T21:12:25.987Z,2.61
2023-03-29T21:14:54.166Z,2.57
2023-03-29T21:17:22.740Z,2.53
2023-03-29T21:19:50.897Z,2.52
2023-03-29T21:22:18.907Z,2.47
2023-03-29T21:24:47.001Z,2.44
2023-03-29T21:27:29.906Z,2.41
2023-03-29T21:30:14.166Z,2.36
2023-03-29T21:32:42.261Z,2.34
2023-03-29T21:35:11.076Z,2.35
2023-03-29T21:37:39.265Z,2.36
2023-03-29T21:40:10.802Z,2.38
2023-03-29T21:42:38.994Z,2.40
2023-03-29T21:45:08.007Z,2.41
2023-03-29T21:47:36.250Z,2.44
2023-03-29T21:50:04.586Z,2.46
2023-03-29T21:52:32.666Z,2.51
2023-03-29T21:55:00.898Z,2.57
2023-03-29T21:57:29.149Z,2.59
2023-03-29T21:59:57.987Z,2.60
2023-03-29T22:02:26.348Z,2.62
2023-03-29T22:04:54.517Z,2.64
2023-03-29T22:07:26.560Z,2.66
2023-03-29T22:09:54.829Z,2.67
2023-03-29T22:12:22.899Z,2.68
2023-03-29T22:14:50.872Z,2.70
2023-03-29T22:17:18.814Z,2.75
2023-03-29T22:19:47.585Z,2.79
2023-03-29T22:22:16.341Z,2.83
2023-03-29T22:24:44.424Z,2.92
2023-03-29T22:27:12.464Z,2.96
2023-03-29T22:29:40.686Z,2.98
2023-03-29T22:32:08.906Z,3.00
2023-03-29T22:34:37.044Z,3.06
2023-03-29T22:37:05.495Z,3.09
2023-03-29T22:39:36.915Z,3.12
2023-03-29T22:42:05.045Z,3.17
2023-03-29T22:44:33.981Z,3.21
2023-03-29T22:47:02.155Z,3.22
2023-03-29T22:49:30.371Z,3.24
2023-03-29T22:51:59.961Z,3.28
2023-03-29T22:54:29.176Z,3.31
2023-03-29T22:56:58.123Z,3.33
2023-03-29T22:59:26.981Z,3.37
2023-03-29T23:01:55.026Z,3.40
2023-03-29T23:04:23.166Z,3.43
2023-03-29T23:06:51.347Z,3.47
2023-03-29T23:09:19.272Z,3.48
2023-03-29T23:11:47.217Z,3.47
2023-03-29T23:14:15.217Z,3.47
2023-03-29T23:16:43.302Z,3.47
2023-03-29T23:19:12.027Z,3.47
2023-03-29T23:21:40.067Z,3.47
2023-03-29T23:24:08.591Z,3.45
2023-03-29T23:26:37.615Z,3.42
2023-03-29T23:29:05.819Z,3.41
2023-03-29T23:31:34.089Z,3.39
2023-03-29T23:34:03.308Z,3.34
2023-03-29T23:36:31.604Z,3.28
2023-03-29T23:38:59.699Z,3.26
2023-03-29T23:41:28.538Z,3.24
2023-03-29T23:43:57.791Z,3.21
2023-03-29T23:46:26.147Z,3.17
2023-03-29T23:48:54.376Z,3.15
2023-03-29T23:51:23.269Z,3.09
2023-03-29T23:53:51.828Z,3.06
2023-03-29T23:56:21.676Z,3.01
2023-03-29T23:58:49.968Z,2.93
